sensor_id;sensor_type;location;lat;lon;timestamp;temperature;humidity
10304;DHT22;5197;48.152;8.590;2023-02-21T00:01:39;3.60;1.00
10304;DHT22;5197;48.152;8.590;2023-02-21T00:04:24;3.60;1.00
10304;DHT22;5197;48.152;8.590;2023-02-21T00:07:10;3.60;1.00
10304;DHT22;5197;48.152;8.590;2023-02-21T00:09:55;3.60;1.00
10304;DHT22;5197;48.152;8.590;2023-02-21T00:12:40;3.60;1.00
10304;DHT22;5197;48.152;8.590;2023-02-21T00:15:26;3.60;1.00
10304;DHT22;5197;48.152;8.590;2023-02-21T00:18:11;5.40;1.00
10304;DHT22;5197;48.152;8.590;2023-02-21T00:20:57;3.60;1.00
10304;DHT22;5197;48.152;8.590;2023-02-21T00:23:42;3.60;1.00
10304;DHT22;5197;48.152;8.590;2023-02-21T00:26:28;3.70;1.00
10304;DHT22;5197;48.152;8.590;2023-02-21T00:29:13;3.70;1.00
10304;DHT22;5197;48.152;8.590;2023-02-21T00:31:59;3.70;1.00
10304;DHT22;5197;48.152;8.590;2023-02-21T00:34:44;3.60;1.00
10304;DHT22;5197;48.152;8.590;2023-02-21T00:37:30;3.50;1.00
10304;DHT22;5197;48.152;8.590;2023-02-21T00:40:16;3.60;1.00
10304;DHT22;5197;48.152;8.590;2023-02-21T00:43:02;3.60;1.00
10304;DHT22;5197;48.152;8.590;2023-02-21T00:45:47;3.50;1.00
10304;DHT22;5197;48.152;8.590;2023-02-21T00:48:33;3.50;1.00
10304;DHT22;5197;48.152;8.590;2023-02-21T00:51:18;3.40;1.00
10304;DHT22;5197;48.152;8.590;2023-02-21T00:54:03;3.30;1.00
10304;DHT22;5197;48.152;8.590;2023-02-21T00:56:49;4.00;1.00
10304;DHT22;5197;48.152;8.590;2023-02-21T00:59:34;3.10;1.00
10304;DHT22;5197;48.152;8.590;2023-02-21T01:02:19;3.20;1.00
10304;DHT22;5197;48.152;8.590;2023-02-21T01:05:05;3.10;1.00
10304;DHT22;5197;48.152;8.590;2023-02-21T01:07:51;3.20;1.00
10304;DHT22;5197;48.152;8.590;2023-02-21T01:10:36;3.10;1.00
10304;DHT22;5197;48.152;8.590;2023-02-21T01:13:21;3.10;1.00
10304;DHT22;5197;48.152;8.590;2023-02-21T01:16:07;3.10;1.00
10304;DHT22;5197;48.152;8.590;2023-02-21T01:18:52;3.10;1.00
10304;DHT22;5197;48.152;8.590;2023-02-21T01:21:37;3.00;1.00
10304;DHT22;5197;48.152;8.590;2023-02-21T01:24:23;3.00;1.00
10304;DHT22;5197;48.152;8.590;2023-02-21T01:27:08;4.70;1.80
10304;DHT22;5197;48.152;8.590;2023-02-21T01:29:53;2.90;1.00
10304;DHT22;5197;48.152;8.590;2023-02-21T01:32:39;2.90;1.00
10304;DHT22;5197;48.152;8.590;2023-02-21T01:35:24;2.90;1.00
10304;DHT22;5197;48.152;8.590;2023-02-21T01:38:10;2.90;1.00
10304;DHT22;5197;48.152;8.590;2023-02-21T01:40:55;2.90;1.00
10304;DHT22;5197;48.152;8.590;2023-02-21T01:44:00;2.80;1.00
10304;DHT22;5197;48.152;8.590;2023-02-21T01:46:46;2.90;1.00
10304;DHT22;5197;48.152;8.590;2023-02-21T01:49:34;3.40;1.00
10304;DHT22;5197;48.152;8.590;2023-02-21T01:52:20;2.80;1.00
10304;DHT22;5197;48.152;8.590;2023-02-21T01:55:07;2.80;1.00
10304;DHT22;5197;48.152;8.590;2023-02-21T01:57:53;2.70;1.00
10304;DHT22;5197;48.152;8.590;2023-02-21T02:00:40;2.60;1.00
10304;DHT22;5197;48.152;8.590;2023-02-21T02:03:26;3.10;1.30
10304;DHT22;5197;48.152;8.590;2023-02-21T02:06:13;3.90;1.90
10304;DHT22;5197;48.152;8.590;2023-02-21T02:09:13;2.60;1.20
10304;DHT22;5197;48.152;8.590;2023-02-21T02:18:02;2.50;1.40
10304;DHT22;5197;48.152;8.590;2023-02-21T02:20:50;2.50;1.30
10304;DHT22;5197;48.152;8.590;2023-02-21T02:35:34;2.40;1.40
10304;DHT22;5197;48.152;8.590;2023-02-21T02:38:37;2.70;1.80
10304;DHT22;5197;48.152;8.590;2023-02-21T02:41:18;2.20;1.40
10304;DHT22;5197;48.152;8.590;2023-02-21T02:44:01;2.20;1.60
10304;DHT22;5197;48.152;8.590;2023-02-21T02:46:30;1.90;1.60
10304;DHT22;5197;48.152;8.590;2023-02-21T02:51:32;2.10;2.20
10304;DHT22;5197;48.152;8.590;2023-02-21T02:53:59;2.10;2.10
10304;DHT22;5197;48.152;8.590;2023-02-21T02:56:26;2.00;2.10
10304;DHT22;5197;48.152;8.590;2023-02-21T02:59:07;2.00;3.30
10304;DHT22;5197;48.152;8.590;2023-02-21T03:10:44;2.10;1.80
10304;DHT22;5197;48.152;8.590;2023-02-21T03:13:21;2.20;1.80
10304;DHT22;5197;48.152;8.590;2023-02-21T03:16:03;2.10;1.90
10304;DHT22;5197;48.152;8.590;2023-02-21T03:18:42;2.10;1.90
10304;DHT22;5197;48.152;8.590;2023-02-21T03:21:46;2.00;1.90
10304;DHT22;5197;48.152;8.590;2023-02-21T03:24:07;2.00;1.90
10304;DHT22;5197;48.152;8.590;2023-02-21T03:26:37;1.90;3.00
10304;DHT22;5197;48.152;8.590;2023-02-21T03:29:06;1.90;2.00
10304;DHT22;5197;48.152;8.590;2023-02-21T03:31:44;2.00;2.20
10304;DHT22;5197;48.152;8.590;2023-02-21T03:34:12;2.00;2.10
10304;DHT22;5197;48.152;8.590;2023-02-21T03:36:39;2.00;2.10
10304;DHT22;5197;48.152;8.590;2023-02-21T03:39:06;2.00;2.20
10304;DHT22;5197;48.152;8.590;2023-02-21T03:41:33;1.90;2.20
10304;DHT22;5197;48.152;8.590;2023-02-21T03:43:59;1.90;2.30
10304;DHT22;5197;48.152;8.590;2023-02-21T03:46:26;2.20;2.50
10304;DHT22;5197;48.152;8.590;2023-02-21T03:48:53;2.10;2.40
10304;DHT22;5197;48.152;8.590;2023-02-21T03:51:20;2.00;2.50
10304;DHT22;5197;48.152;8.590;2023-02-21T03:53:47;1.90;2.70
10304;DHT22;5197;48.152;8.590;2023-02-21T03:56:14;1.80;2.40
10304;DHT22;5197;48.152;8.590;2023-02-21T03:58:41;1.80;2.50
10304;DHT22;5197;48.152;8.590;2023-02-21T04:01:07;1.90;2.60
10304;DHT22;5197;48.152;8.590;2023-02-21T04:03:34;1.80;2.50
10304;DHT22;5197;48.152;8.590;2023-02-21T04:06:01;1.90;2.70
10304;DHT22;5197;48.152;8.590;2023-02-21T04:08:29;1.90;2.60
10304;DHT22;5197;48.152;8.590;2023-02-21T04:10:56;1.90;2.60
10304;DHT22;5197;48.152;8.590;2023-02-21T04:15:50;1.90;1.80
10304;DHT22;5197;48.152;8.590;2023-02-21T04:18:17;1.90;2.60
10304;DHT22;5197;48.152;8.590;2023-02-21T04:20:44;1.80;2.70
10304;DHT22;5197;48.152;8.590;2023-02-21T04:23:17;1.80;2.80
10304;DHT22;5197;48.152;8.590;2023-02-21T04:25:44;1.80;2.90
10304;DHT22;5197;48.152;8.590;2023-02-21T04:28:11;1.80;2.90
10304;DHT22;5197;48.152;8.590;2023-02-21T04:30:38;1.80;2.80
10304;DHT22;5197;48.152;8.590;2023-02-21T04:33:05;1.80;3.00
10304;DHT22;5197;48.152;8.590;2023-02-21T04:35:31;1.70;2.90
10304;DHT22;5197;48.152;8.590;2023-02-21T04:37:58;1.70;3.10
10304;DHT22;5197;48.152;8.590;2023-02-21T04:40:25;1.80;3.30
10304;DHT22;5197;48.152;8.590;2023-02-21T04:42:52;1.80;3.30
10304;DHT22;5197;48.152;8.590;2023-02-21T04:45:19;1.70;3.30
10304;DHT22;5197;48.152;8.590;2023-02-21T04:47:46;1.80;3.60
10304;DHT22;5197;48.152;8.590;2023-02-21T04:50:13;1.70;3.50
10304;DHT22;5197;48.152;8.590;2023-02-21T04:52:40;1.50;3.50
10304;DHT22;5197;48.152;8.590;2023-02-21T04:55:08;1.80;3.70
10304;DHT22;5197;48.152;8.590;2023-02-21T04:57:34;1.80;3.60
10304;DHT22;5197;48.152;8.590;2023-02-21T05:00:02;1.90;3.70
10304;DHT22;5197;48.152;8.590;2023-02-21T05:02:33;1.90;3.70
10304;DHT22;5197;48.152;8.590;2023-02-21T05:05:00;1.80;3.60
10304;DHT22;5197;48.152;8.590;2023-02-21T05:07:27;1.70;3.60
10304;DHT22;5197;48.152;8.590;2023-02-21T05:09:53;1.70;3.80
10304;DHT22;5197;48.152;8.590;2023-02-21T05:12:20;1.60;3.70
10304;DHT22;5197;48.152;8.590;2023-02-21T05:14:47;1.50;3.60
10304;DHT22;5197;48.152;8.590;2023-02-21T05:17:14;1.40;3.90
10304;DHT22;5197;48.152;8.590;2023-02-21T05:19:41;1.40;4.20
10304;DHT22;5197;48.152;8.590;2023-02-21T05:22:07;1.30;4.50
10304;DHT22;5197;48.152;8.590;2023-02-21T05:24:40;1.30;4.60
10304;DHT22;5197;48.152;8.590;2023-02-21T05:27:08;1.30;4.50
10304;DHT22;5197;48.152;8.590;2023-02-21T05:29:45;1.30;4.50
10304;DHT22;5197;48.152;8.590;2023-02-21T05:32:12;1.30;4.50
10304;DHT22;5197;48.152;8.590;2023-02-21T05:34:39;1.30;5.40
10304;DHT22;5197;48.152;8.590;2023-02-21T05:37:10;1.30;4.60
10304;DHT22;5197;48.152;8.590;2023-02-21T05:39:37;1.10;4.50
10304;DHT22;5197;48.152;8.590;2023-02-21T05:42:04;1.10;4.60
10304;DHT22;5197;48.152;8.590;2023-02-21T05:44:31;0.90;4.90
10304;DHT22;5197;48.152;8.590;2023-02-21T05:46:58;0.90;4.90
10304;DHT22;5197;48.152;8.590;2023-02-21T05:49:25;0.90;4.80
10304;DHT22;5197;48.152;8.590;2023-02-21T05:51:54;0.80;4.90
10304;DHT22;5197;48.152;8.590;2023-02-21T05:54:21;0.80;4.90
10304;DHT22;5197;48.152;8.590;2023-02-21T05:56:49;0.80;5.00
10304;DHT22;5197;48.152;8.590;2023-02-21T05:59:18;0.80;5.00
10304;DHT22;5197;48.152;8.590;2023-02-21T06:01:47;0.80;5.10
10304;DHT22;5197;48.152;8.590;2023-02-21T06:04:14;0.80;5.10
10304;DHT22;5197;48.152;8.590;2023-02-21T06:06:42;0.80;5.10
10304;DHT22;5197;48.152;8.590;2023-02-21T06:09:09;0.80;5.30
10304;DHT22;5197;48.152;8.590;2023-02-21T06:11:37;0.80;5.30
10304;DHT22;5197;48.152;8.590;2023-02-21T06:14:16;0.80;5.40
10304;DHT22;5197;48.152;8.590;2023-02-21T06:16:45;0.90;5.50
10304;DHT22;5197;48.152;8.590;2023-02-21T06:19:14;0.90;5.80
10304;DHT22;5197;48.152;8.590;2023-02-21T06:21:42;1.00;5.50
10304;DHT22;5197;48.152;8.590;2023-02-21T06:24:09;1.10;5.60
10304;DHT22;5197;48.152;8.590;2023-02-21T06:26:37;1.10;5.40
10304;DHT22;5197;48.152;8.590;2023-02-21T06:29:04;1.10;5.40
10304;DHT22;5197;48.152;8.590;2023-02-21T06:31:32;1.00;5.50
10304;DHT22;5197;48.152;8.590;2023-02-21T06:33:59;1.00;5.70
10304;DHT22;5197;48.152;8.590;2023-02-21T06:36:27;1.00;5.80
10304;DHT22;5197;48.152;8.590;2023-02-21T06:38:56;1.00;6.00
10304;DHT22;5197;48.152;8.590;2023-02-21T06:41:25;1.00;6.00
10304;DHT22;5197;48.152;8.590;2023-02-21T06:43:54;1.00;6.20
10304;DHT22;5197;48.152;8.590;2023-02-21T06:46:25;1.00;6.20
10304;DHT22;5197;48.152;8.590;2023-02-21T06:48:52;1.10;6.40
10304;DHT22;5197;48.152;8.590;2023-02-21T06:51:19;1.10;6.60
10304;DHT22;5197;48.152;8.590;2023-02-21T06:53:49;1.10;6.60
10304;DHT22;5197;48.152;8.590;2023-02-21T06:56:16;1.10;6.70
10304;DHT22;5197;48.152;8.590;2023-02-21T06:58:43;1.20;6.90
10304;DHT22;5197;48.152;8.590;2023-02-21T07:01:10;1.30;7.30
10304;DHT22;5197;48.152;8.590;2023-02-21T07:03:40;1.20;7.50
10304;DHT22;5197;48.152;8.590;2023-02-21T07:06:10;1.40;7.60
10304;DHT22;5197;48.152;8.590;2023-02-21T07:08:37;1.50;7.50
10304;DHT22;5197;48.152;8.590;2023-02-21T07:11:04;1.70;7.60
10304;DHT22;5197;48.152;8.590;2023-02-21T07:13:32;1.80;7.90
10304;DHT22;5197;48.152;8.590;2023-02-21T07:16:00;1.90;7.60
10304;DHT22;5197;48.152;8.590;2023-02-21T07:18:30;1.90;7.80
10304;DHT22;5197;48.152;8.590;2023-02-21T07:20:57;2.20;8.50
10304;DHT22;5197;48.152;8.590;2023-02-21T07:23:24;2.40;8.90
10304;DHT22;5197;48.152;8.590;2023-02-21T07:25:51;2.70;8.70
10304;DHT22;5197;48.152;8.590;2023-02-21T07:28:18;3.00;9.00
10304;DHT22;5197;48.152;8.590;2023-02-21T07:30:46;3.20;9.20
10304;DHT22;5197;48.152;8.590;2023-02-21T07:33:13;3.70;9.80
10304;DHT22;5197;48.152;8.590;2023-02-21T07:35:39;4.30;9.60
10304;DHT22;5197;48.152;8.590;2023-02-21T07:38:06;4.90;9.30
10304;DHT22;5197;48.152;8.590;2023-02-21T07:40:33;4.90;8.70
10304;DHT22;5197;48.152;8.590;2023-02-21T07:43:00;6.30;7.80
10304;DHT22;5197;48.152;8.590;2023-02-21T07:45:28;6.70;6.50
10304;DHT22;5197;48.152;8.590;2023-02-21T07:47:55;7.30;5.50
10304;DHT22;5197;48.152;8.590;2023-02-21T07:50:21;7.70;4.20
10304;DHT22;5197;48.152;8.590;2023-02-21T07:52:49;8.10;3.10
10304;DHT22;5197;48.152;8.590;2023-02-21T07:55:17;8.40;2.50
10304;DHT22;5197;48.152;8.590;2023-02-21T07:57:44;8.90;1.10
10304;DHT22;5197;48.152;8.590;2023-02-21T08:00:12;9.50;1.00
10304;DHT22;5197;48.152;8.590;2023-02-21T08:02:39;9.70;1.00
10304;DHT22;5197;48.152;8.590;2023-02-21T08:05:08;10.10;1.00
10304;DHT22;5197;48.152;8.590;2023-02-21T08:07:35;10.70;1.00
10304;DHT22;5197;48.152;8.590;2023-02-21T08:10:03;11.10;1.00
10304;DHT22;5197;48.152;8.590;2023-02-21T08:12:30;11.70;1.00
10304;DHT22;5197;48.152;8.590;2023-02-21T08:14:57;12.00;1.00
10304;DHT22;5197;48.152;8.590;2023-02-21T08:17:24;12.40;1.00
10304;DHT22;5197;48.152;8.590;2023-02-21T08:19:50;12.80;1.00
10304;DHT22;5197;48.152;8.590;2023-02-21T08:22:17;13.20;1.00
10304;DHT22;5197;48.152;8.590;2023-02-21T08:24:44;13.60;1.00
10304;DHT22;5197;48.152;8.590;2023-02-21T08:27:11;14.00;1.00
10304;DHT22;5197;48.152;8.590;2023-02-21T08:29:38;15.00;1.00
10304;DHT22;5197;48.152;8.590;2023-02-21T08:32:06;14.50;1.00
10304;DHT22;5197;48.152;8.590;2023-02-21T08:34:33;16.10;1.00
10304;DHT22;5197;48.152;8.590;2023-02-21T08:37:00;15.40;1.00
10304;DHT22;5197;48.152;8.590;2023-02-21T08:39:27;17.40;1.00
10304;DHT22;5197;48.152;8.590;2023-02-21T08:41:57;16.80;1.00
10304;DHT22;5197;48.152;8.590;2023-02-21T08:44:24;16.50;1.00
10304;DHT22;5197;48.152;8.590;2023-02-21T08:46:51;17.10;1.00
10304;DHT22;5197;48.152;8.590;2023-02-21T08:49:17;16.70;1.00
10304;DHT22;5197;48.152;8.590;2023-02-21T08:51:44;17.30;1.00
10304;DHT22;5197;48.152;8.590;2023-02-21T08:54:11;16.50;1.00
10304;DHT22;5197;48.152;8.590;2023-02-21T08:56:39;16.50;1.00
10304;DHT22;5197;48.152;8.590;2023-02-21T08:59:06;15.00;1.00
10304;DHT22;5197;48.152;8.590;2023-02-21T09:01:35;14.00;1.00
10304;DHT22;5197;48.152;8.590;2023-02-21T09:04:03;13.10;1.00
10304;DHT22;5197;48.152;8.590;2023-02-21T09:06:30;12.50;1.00
10304;DHT22;5197;48.152;8.590;2023-02-21T09:08:57;12.00;1.00
10304;DHT22;5197;48.152;8.590;2023-02-21T09:11:24;11.60;1.00
10304;DHT22;5197;48.152;8.590;2023-02-21T09:13:51;11.30;1.00
10304;DHT22;5197;48.152;8.590;2023-02-21T09:16:21;11.60;1.00
10304;DHT22;5197;48.152;8.590;2023-02-21T09:18:56;11.40;1.00
10304;DHT22;5197;48.152;8.590;2023-02-21T09:21:25;11.00;1.00
10304;DHT22;5197;48.152;8.590;2023-02-21T09:23:53;10.70;1.00
10304;DHT22;5197;48.152;8.590;2023-02-21T09:26:20;10.80;1.00
10304;DHT22;5197;48.152;8.590;2023-02-21T09:28:52;10.50;1.00
10304;DHT22;5197;48.152;8.590;2023-02-21T09:31:19;10.60;1.00
10304;DHT22;5197;48.152;8.590;2023-02-21T09:33:46;10.60;1.00
10304;DHT22;5197;48.152;8.590;2023-02-21T09:36:15;10.60;1.00
10304;DHT22;5197;48.152;8.590;2023-02-21T09:38:41;10.60;1.00
10304;DHT22;5197;48.152;8.590;2023-02-21T09:41:11;10.60;1.00
10304;DHT22;5197;48.152;8.590;2023-02-21T09:43:43;10.70;1.00
10304;DHT22;5197;48.152;8.590;2023-02-21T09:46:38;10.70;1.00
10304;DHT22;5197;48.152;8.590;2023-02-21T09:49:26;10.80;1.00
10304;DHT22;5197;48.152;8.590;2023-02-21T09:51:55;10.80;1.00
10304;DHT22;5197;48.152;8.590;2023-02-21T09:54:25;10.80;1.00
10304;DHT22;5197;48.152;8.590;2023-02-21T09:56:56;10.80;1.00
10304;DHT22;5197;48.152;8.590;2023-02-21T09:59:23;10.90;1.00
10304;DHT22;5197;48.152;8.590;2023-02-21T10:01:55;10.90;1.00
10304;DHT22;5197;48.152;8.590;2023-02-21T10:05:12;10.90;1.00
10304;DHT22;5197;48.152;8.590;2023-02-21T10:10:49;11.10;1.00
10304;DHT22;5197;48.152;8.590;2023-02-21T10:16:20;11.20;1.00
10304;DHT22;5197;48.152;8.590;2023-02-21T10:21:35;11.40;1.00
10304;DHT22;5197;48.152;8.590;2023-02-21T10:24:12;11.50;1.00
10304;DHT22;5197;48.152;8.590;2023-02-21T10:26:43;11.60;1.00
10304;DHT22;5197;48.152;8.590;2023-02-21T10:29:21;11.70;1.00
10304;DHT22;5197;48.152;8.590;2023-02-21T10:31:54;11.80;1.00
10304;DHT22;5197;48.152;8.590;2023-02-21T10:34:25;11.80;1.00
10304;DHT22;5197;48.152;8.590;2023-02-21T10:37:01;12.00;1.00
10304;DHT22;5197;48.152;8.590;2023-02-21T10:39:45;12.10;1.00
10304;DHT22;5197;48.152;8.590;2023-02-21T10:42:29;12.20;1.00
10304;DHT22;5197;48.152;8.590;2023-02-21T10:44:57;12.50;1.00
10304;DHT22;5197;48.152;8.590;2023-02-21T10:47:31;12.40;1.00
10304;DHT22;5197;48.152;8.590;2023-02-21T10:50:09;12.50;1.00
10304;DHT22;5197;48.152;8.590;2023-02-21T10:52:48;13.90;1.00
10304;DHT22;5197;48.152;8.590;2023-02-21T10:55:20;13.20;1.00
10304;DHT22;5197;48.152;8.590;2023-02-21T10:58:07;12.70;1.00
10304;DHT22;5197;48.152;8.590;2023-02-21T11:00:35;12.70;1.00
10304;DHT22;5197;48.152;8.590;2023-02-21T11:03:26;13.20;1.00
10304;DHT22;5197;48.152;8.590;2023-02-21T11:05:55;13.70;1.00
10304;DHT22;5197;48.152;8.590;2023-02-21T11:08:38;13.00;1.00
10304;DHT22;5197;48.152;8.590;2023-02-21T11:11:06;13.20;1.00
10304;DHT22;5197;48.152;8.590;2023-02-21T11:13:33;13.20;1.00
10304;DHT22;5197;48.152;8.590;2023-02-21T11:18:35;13.40;1.00
10304;DHT22;5197;48.152;8.590;2023-02-21T11:21:14;13.50;1.00
10304;DHT22;5197;48.152;8.590;2023-02-21T11:23:56;13.50;1.00
10304;DHT22;5197;48.152;8.590;2023-02-21T11:26:24;13.60;1.00
10304;DHT22;5197;48.152;8.590;2023-02-21T11:28:53;13.70;1.00
10304;DHT22;5197;48.152;8.590;2023-02-21T11:31:30;13.60;1.00
10304;DHT22;5197;48.152;8.590;2023-02-21T11:34:03;13.70;1.00
10304;DHT22;5197;48.152;8.590;2023-02-21T11:36:34;13.70;1.00
10304;DHT22;5197;48.152;8.590;2023-02-21T11:39:03;13.80;1.00
10304;DHT22;5197;48.152;8.590;2023-02-21T11:41:46;13.90;1.00
10304;DHT22;5197;48.152;8.590;2023-02-21T11:44:27;14.90;1.00
10304;DHT22;5197;48.152;8.590;2023-02-21T11:47:21;14.20;1.00
10304;DHT22;5197;48.152;8.590;2023-02-21T11:50:18;14.10;1.00
10304;DHT22;5197;48.152;8.590;2023-02-21T11:53:03;14.30;1.00
10304;DHT22;5197;48.152;8.590;2023-02-21T11:55:32;14.30;1.00
10304;DHT22;5197;48.152;8.590;2023-02-21T12:01:39;14.40;1.00
10304;DHT22;5197;48.152;8.590;2023-02-21T12:04:57;14.50;1.00
10304;DHT22;5197;48.152;8.590;2023-02-21T12:07:41;14.50;1.00
10304;DHT22;5197;48.152;8.590;2023-02-21T12:10:30;14.50;1.00
10304;DHT22;5197;48.152;8.590;2023-02-21T12:47:18;15.10;1.00
10304;DHT22;5197;48.152;8.590;2023-02-21T12:49:52;15.10;1.00
10304;DHT22;5197;48.152;8.590;2023-02-21T12:52:53;15.70;1.00
10304;DHT22;5197;48.152;8.590;2023-02-21T12:55:41;15.20;1.00
10304;DHT22;5197;48.152;8.590;2023-02-21T13:01:04;15.20;1.00
10304;DHT22;5197;48.152;8.590;2023-02-21T13:06:14;15.30;1.00
10304;DHT22;5197;48.152;8.590;2023-02-21T13:08:58;15.90;1.00
10304;DHT22;5197;48.152;8.590;2023-02-21T13:14:17;14.30;1.00
10304;DHT22;5197;48.152;8.590;2023-02-21T13:16:46;15.70;1.00
10304;DHT22;5197;48.152;8.590;2023-02-21T13:19:14;15.60;1.00
10304;DHT22;5197;48.152;8.590;2023-02-21T13:22:10;15.60;1.00
10304;DHT22;5197;48.152;8.590;2023-02-21T13:24:57;15.70;1.00
10304;DHT22;5197;48.152;8.590;2023-02-21T13:27:52;15.70;1.00
10304;DHT22;5197;48.152;8.590;2023-02-21T13:30:39;15.80;1.00
10304;DHT22;5197;48.152;8.590;2023-02-21T13:35:57;15.90;1.00
10304;DHT22;5197;48.152;8.590;2023-02-21T13:38:28;16.30;1.00
10304;DHT22;5197;48.152;8.590;2023-02-21T13:41:06;15.90;1.00
10304;DHT22;5197;48.152;8.590;2023-02-21T13:43:36;16.60;1.00
10304;DHT22;5197;48.152;8.590;2023-02-21T13:47:14;16.00;1.00
10304;DHT22;5197;48.152;8.590;2023-02-21T13:49:35;16.10;1.00
10304;DHT22;5197;48.152;8.590;2023-02-21T14:03:04;16.10;1.00
10304;DHT22;5197;48.152;8.590;2023-02-21T14:21:13;17.90;1.00
10304;DHT22;5197;48.152;8.590;2023-02-21T14:24:01;16.30;1.00
10304;DHT22;5197;48.152;8.590;2023-02-21T14:29:39;16.30;1.00
10304;DHT22;5197;48.152;8.590;2023-02-21T14:37:39;16.30;1.00
10304;DHT22;5197;48.152;8.590;2023-02-21T14:48:44;16.90;1.00
10304;DHT22;5197;48.152;8.590;2023-02-21T14:54:21;16.30;1.00
10304;DHT22;5197;48.152;8.590;2023-02-21T15:12:56;16.40;1.00
10304;DHT22;5197;48.152;8.590;2023-02-21T15:15:27;16.40;1.00
10304;DHT22;5197;48.152;8.590;2023-02-21T15:20:24;17.30;1.00
10304;DHT22;5197;48.152;8.590;2023-02-21T15:23:14;16.40;1.00
10304;DHT22;5197;48.152;8.590;2023-02-21T15:25:43;16.40;1.00
10304;DHT22;5197;48.152;8.590;2023-02-21T15:28:28;16.90;1.00
10304;DHT22;5197;48.152;8.590;2023-02-21T15:31:04;16.40;1.00
10304;DHT22;5197;48.152;8.590;2023-02-21T15:33:36;16.40;1.00
10304;DHT22;5197;48.152;8.590;2023-02-21T15:36:19;16.40;1.00
10304;DHT22;5197;48.152;8.590;2023-02-21T15:39:07;16.40;1.00
10304;DHT22;5197;48.152;8.590;2023-02-21T15:41:44;16.40;1.00
10304;DHT22;5197;48.152;8.590;2023-02-21T15:44:29;16.40;1.00
10304;DHT22;5197;48.152;8.590;2023-02-21T15:47:01;16.90;1.00
10304;DHT22;5197;48.152;8.590;2023-02-21T15:49:35;16.30;1.00
10304;DHT22;5197;48.152;8.590;2023-02-21T15:52:03;16.30;1.00
10304;DHT22;5197;48.152;8.590;2023-02-21T15:54:32;16.30;1.00
10304;DHT22;5197;48.152;8.590;2023-02-21T15:59:36;16.10;1.00
10304;DHT22;5197;48.152;8.590;2023-02-21T16:02:19;16.10;1.00
10304;DHT22;5197;48.152;8.590;2023-02-21T16:04:50;16.00;1.00
10304;DHT22;5197;48.152;8.590;2023-02-21T16:07:37;16.70;1.00
10304;DHT22;5197;48.152;8.590;2023-02-21T16:10:10;16.30;1.00
10304;DHT22;5197;48.152;8.590;2023-02-21T16:12:40;15.90;1.00
10304;DHT22;5197;48.152;8.590;2023-02-21T16:15:21;15.90;1.00
10304;DHT22;5197;48.152;8.590;2023-02-21T16:17:54;15.70;1.00
10304;DHT22;5197;48.152;8.590;2023-02-21T16:20:36;15.80;1.00
10304;DHT22;5197;48.152;8.590;2023-02-21T16:28:39;15.20;1.00
10304;DHT22;5197;48.152;8.590;2023-02-21T16:31:09;15.10;1.00
10304;DHT22;5197;48.152;8.590;2023-02-21T16:33:38;15.60;1.00
10304;DHT22;5197;48.152;8.590;2023-02-21T16:36:15;15.70;1.00
10304;DHT22;5197;48.152;8.590;2023-02-21T16:38:44;14.60;1.00
10304;DHT22;5197;48.152;8.590;2023-02-21T16:41:14;14.40;1.00
10304;DHT22;5197;48.152;8.590;2023-02-21T16:43:42;14.20;1.00
10304;DHT22;5197;48.152;8.590;2023-02-21T16:46:09;15.90;1.00
10304;DHT22;5197;48.152;8.590;2023-02-21T16:48:36;13.90;1.00
10304;DHT22;5197;48.152;8.590;2023-02-21T16:51:06;14.90;1.00
10304;DHT22;5197;48.152;8.590;2023-02-21T16:53:35;14.20;1.00
10304;DHT22;5197;48.152;8.590;2023-02-21T16:56:03;15.20;1.00
10304;DHT22;5197;48.152;8.590;2023-02-21T16:58:42;13.30;1.00
10304;DHT22;5197;48.152;8.590;2023-02-21T17:01:27;13.10;1.00
10304;DHT22;5197;48.152;8.590;2023-02-21T17:03:55;13.00;1.00
10304;DHT22;5197;48.152;8.590;2023-02-21T17:06:23;12.80;1.00
10304;DHT22;5197;48.152;8.590;2023-02-21T17:08:51;12.60;1.00
10304;DHT22;5197;48.152;8.590;2023-02-21T17:11:18;12.40;1.00
10304;DHT22;5197;48.152;8.590;2023-02-21T17:13:45;12.20;1.00
10304;DHT22;5197;48.152;8.590;2023-02-21T17:16:12;12.10;1.00
10304;DHT22;5197;48.152;8.590;2023-02-21T17:18:39;12.00;1.00
10304;DHT22;5197;48.152;8.590;2023-02-21T17:21:06;11.90;1.00
10304;DHT22;5197;48.152;8.590;2023-02-21T17:23:33;11.80;1.00
10304;DHT22;5197;48.152;8.590;2023-02-21T17:26:03;11.60;1.00
10304;DHT22;5197;48.152;8.590;2023-02-21T17:28:30;11.60;1.00
10304;DHT22;5197;48.152;8.590;2023-02-21T17:30:57;11.40;1.00
10304;DHT22;5197;48.152;8.590;2023-02-21T17:33:30;11.40;1.00
10304;DHT22;5197;48.152;8.590;2023-02-21T17:35:57;11.30;1.00
10304;DHT22;5197;48.152;8.590;2023-02-21T17:38:24;11.30;1.00
10304;DHT22;5197;48.152;8.590;2023-02-21T17:40:51;11.20;1.00
10304;DHT22;5197;48.152;8.590;2023-02-21T17:43:19;12.80;1.00
10304;DHT22;5197;48.152;8.590;2023-02-21T17:45:46;11.10;1.00
10304;DHT22;5197;48.152;8.590;2023-02-21T17:48:13;12.70;1.00
10304;DHT22;5197;48.152;8.590;2023-02-21T17:50:40;11.20;1.00
10304;DHT22;5197;48.152;8.590;2023-02-21T17:53:07;10.80;1.00
10304;DHT22;5197;48.152;8.590;2023-02-21T17:55:34;11.40;1.00
10304;DHT22;5197;48.152;8.590;2023-02-21T17:58:01;10.80;1.00
10304;DHT22;5197;48.152;8.590;2023-02-21T18:00:28;10.60;1.00
10304;DHT22;5197;48.152;8.590;2023-02-21T18:02:59;12.80;1.00
10304;DHT22;5197;48.152;8.590;2023-02-21T18:05:30;12.50;1.00
10304;DHT22;5197;48.152;8.590;2023-02-21T18:07:57;12.00;1.00
10304;DHT22;5197;48.152;8.590;2023-02-21T18:10:25;10.50;1.00
10304;DHT22;5197;48.152;8.590;2023-02-21T18:12:52;11.30;1.00
10304;DHT22;5197;48.152;8.590;2023-02-21T18:15:20;10.40;1.00
10304;DHT22;5197;48.152;8.590;2023-02-21T18:17:47;10.30;1.00
10304;DHT22;5197;48.152;8.590;2023-02-21T18:20:15;10.30;1.00
10304;DHT22;5197;48.152;8.590;2023-02-21T18:22:42;10.20;1.00
10304;DHT22;5197;48.152;8.590;2023-02-21T18:25:10;12.10;1.00
10304;DHT22;5197;48.152;8.590;2023-02-21T18:27:38;10.20;1.00
10304;DHT22;5197;48.152;8.590;2023-02-21T18:30:05;10.30;1.00
10304;DHT22;5197;48.152;8.590;2023-02-21T18:32:33;10.10;1.00
10304;DHT22;5197;48.152;8.590;2023-02-21T18:34:59;10.00;1.00
10304;DHT22;5197;48.152;8.590;2023-02-21T18:37:26;9.90;1.00
10304;DHT22;5197;48.152;8.590;2023-02-21T18:39:55;9.80;1.00
10304;DHT22;5197;48.152;8.590;2023-02-21T18:42:22;9.80;1.00
10304;DHT22;5197;48.152;8.590;2023-02-21T18:44:50;9.70;1.00
10304;DHT22;5197;48.152;8.590;2023-02-21T18:47:18;9.60;1.00
10304;DHT22;5197;48.152;8.590;2023-02-21T18:49:46;9.60;1.00
10304;DHT22;5197;48.152;8.590;2023-02-21T18:52:14;9.30;1.00
10304;DHT22;5197;48.152;8.590;2023-02-21T18:54:47;9.20;1.00
10304;DHT22;5197;48.152;8.590;2023-02-21T18:57:20;9.20;1.00
10304;DHT22;5197;48.152;8.590;2023-02-21T18:59:47;9.10;1.00
10304;DHT22;5197;48.152;8.590;2023-02-21T19:02:17;9.00;1.00
10304;DHT22;5197;48.152;8.590;2023-02-21T19:04:44;8.90;1.00
10304;DHT22;5197;48.152;8.590;2023-02-21T19:07:13;8.90;1.00
10304;DHT22;5197;48.152;8.590;2023-02-21T19:09:45;8.80;1.00
10304;DHT22;5197;48.152;8.590;2023-02-21T19:12:12;8.80;1.00
10304;DHT22;5197;48.152;8.590;2023-02-21T19:14:39;8.60;1.00
10304;DHT22;5197;48.152;8.590;2023-02-21T19:17:06;8.60;1.00
10304;DHT22;5197;48.152;8.590;2023-02-21T19:19:34;8.60;1.00
10304;DHT22;5197;48.152;8.590;2023-02-21T19:22:01;8.60;1.00
10304;DHT22;5197;48.152;8.590;2023-02-21T19:24:28;8.50;1.00
10304;DHT22;5197;48.152;8.590;2023-02-21T19:26:55;8.50;1.00
10304;DHT22;5197;48.152;8.590;2023-02-21T19:29:22;8.40;1.00
10304;DHT22;5197;48.152;8.590;2023-02-21T19:31:49;8.40;1.00
10304;DHT22;5197;48.152;8.590;2023-02-21T19:34:16;8.40;1.00